Time;durP1;ratioP1;P1;durP2;ratioP2;P2;SDS_P1;SDS_P2;PMS_P1;PMS_P2;Temp;Humidity;BMP_temperature;BMP_pressure;BME280_temperature;BME280_humidity;BME280_pressure;Samples;Min_cycle;Max_cycle;Signal;HPM_P1;HPM_P2
2023/08/19 00:00:55;;;;;;;6.65;0.80;;;14.80;92.10;;;;;;5136796;27;20197;-85
2023/08/19 00:03:26;;;;;;;1.95;0.85;;;14.80;92.60;;;;;;5136051;27;20732;-85
2023/08/19 00:06:01;;;;;;;3.78;0.73;;;14.90;92.00;;;;;;5134185;27;20236;-85
2023/08/19 00:08:32;;;;;;;1.65;0.63;;;15.10;91.60;;;;;;5136180;27;20391;-85
2023/08/19 00:11:02;;;;;;;5.57;1.00;;;15.20;92.80;;;;;;5135164;27;20687;-85
2023/08/19 00:13:34;;;;;;;3.25;0.55;;;15.40;90.20;;;;;;5141172;27;20194;-86
2023/08/19 00:16:07;;;;;;;2.33;0.80;;;15.40;90.10;;;;;;5141539;27;20193;-86
2023/08/19 00:18:37;;;;;;;3.55;0.68;;;15.40;89.70;;;;;;5145341;27;20201;-86
2023/08/19 00:21:12;;;;;;;1.98;0.70;;;15.50;89.00;;;;;;5150388;27;20233;-86
2023/08/19 00:23:44;;;;;;;1.58;0.55;;;15.60;88.10;;;;;;5147498;27;20186;-86
2023/08/19 00:26:15;;;;;;;2.83;0.75;;;15.70;88.70;;;;;;5135979;27;20194;-83
2023/08/19 00:28:47;;;;;;;1.08;0.50;;;15.90;88.80;;;;;;5136257;27;20198;-85
2023/08/19 00:31:18;;;;;;;3.13;0.98;;;15.80;85.30;;;;;;5134162;27;20665;-84
2023/08/19 00:33:48;;;;;;;4.43;0.82;;;15.70;84.90;;;;;;5136393;27;20198;-84
2023/08/19 00:36:26;;;;;;;4.43;0.90;;;15.70;86.40;;;;;;5135726;27;20584;-85
2023/08/19 00:38:57;;;;;;;3.08;0.60;;;15.90;87.40;;;;;;5136913;27;20683;-87
2023/08/19 00:41:29;;;;;;;3.72;0.77;;;16.00;84.80;;;;;;5140141;27;20264;-86
2023/08/19 00:44:00;;;;;;;1.77;0.52;;;16.10;83.70;;;;;;5136241;27;20218;-85
2023/08/19 00:46:32;;;;;;;2.92;0.70;;;16.10;82.90;;;;;;5148267;27;20194;-84
2023/08/19 00:49:02;;;;;;;3.50;0.75;;;16.10;84.20;;;;;;5151145;27;20197;-84
2023/08/19 00:51:35;;;;;;;5.47;0.60;;;16.20;83.60;;;;;;5160828;27;20249;-86
2023/08/19 00:54:07;;;;;;;3.67;1.00;;;16.50;84.00;;;;;;5158834;27;20193;-86
2023/08/19 00:56:38;;;;;;;3.63;1.00;;;16.20;80.90;;;;;;5138017;27;20671;-86
2023/08/19 00:59:09;;;;;;;3.15;0.65;;;16.40;82.10;;;;;;5137491;27;20279;-86
2023/08/19 01:01:40;;;;;;;1.90;0.52;;;16.50;79.50;;;;;;5147743;27;20221;-85
2023/08/19 01:04:12;;;;;;;2.65;0.60;;;16.40;79.10;;;;;;5143669;27;20265;-84
2023/08/19 01:06:49;;;;;;;3.45;0.60;;;16.40;78.20;;;;;;5154884;27;20259;-85
2023/08/19 01:09:30;;;;;;;2.30;0.50;;;16.50;80.90;;;;;;5135417;27;20201;-85
2023/08/19 01:12:09;;;;;;;2.92;0.88;;;16.70;78.10;;;;;;5133063;27;20667;-86
2023/08/19 01:14:49;;;;;;;1.05;0.60;;;16.60;77.70;;;;;;5136326;27;20200;-84
2023/08/19 01:17:23;;;;;;;2.50;0.73;;;16.70;79.30;;;;;;5135479;27;20679;-86
2023/08/19 01:19:56;;;;;;;4.75;1.00;;;16.80;75.90;;;;;;5133260;27;20208;-85
2023/08/19 01:22:36;;;;;;;2.03;0.60;;;16.80;75.80;;;;;;5140311;27;20229;-88
2023/08/19 01:25:15;;;;;;;1.67;0.90;;;17.00;77.40;;;;;;5140543;27;20288;-89
2023/08/19 01:27:46;;;;;;;2.45;0.82;;;17.10;76.00;;;;;;5157524;27;20197;-91
2023/08/19 01:30:18;;;;;;;3.83;1.10;;;17.20;74.20;;;;;;5155655;27;20213;-89
2023/08/19 01:32:50;;;;;;;3.45;1.00;;;17.00;72.80;;;;;;5137778;28;20219;-91
2023/08/19 01:35:22;;;;;;;5.43;1.10;;;17.20;73.50;;;;;;5121079;28;20271;-88
2023/08/19 01:37:59;;;;;;;7.03;1.08;;;17.30;72.30;;;;;;5144124;27;20661;-87
2023/08/19 01:40:34;;;;;;;1.20;0.60;;;17.40;71.60;;;;;;5150688;27;20735;-85
2023/08/19 01:43:07;;;;;;;1.80;0.50;;;17.50;71.90;;;;;;5136950;28;20228;-86
2023/08/19 01:45:38;;;;;;;4.43;1.10;;;17.60;71.80;;;;;;5144699;27;20198;-86
2023/08/19 01:48:10;;;;;;;5.32;1.10;;;17.70;70.50;;;;;;5154738;27;20209;-86
2023/08/19 01:50:41;;;;;;;1.77;0.60;;;17.70;71.30;;;;;;5149627;27;20265;-86
2023/08/19 01:53:15;;;;;;;3.33;1.30;;;17.80;69.30;;;;;;5134898;27;20239;-85
2023/08/19 01:55:48;;;;;;;1.90;0.80;;;17.90;69.50;;;;;;5139433;27;20185;-85
2023/08/19 01:58:18;;;;;;;1.60;0.60;;;17.80;69.50;;;;;;5157559;27;20206;-85
2023/08/19 02:00:50;;;;;;;9.75;3.50;;;17.80;68.70;;;;;;5156578;27;20198;-82
2023/08/19 02:03:21;;;;;;;1.50;0.65;;;17.80;67.90;;;;;;5149260;27;20688;-84
2023/08/19 02:05:52;;;;;;;2.55;0.90;;;17.80;68.50;;;;;;5138191;27;20206;-84
2023/08/19 02:08:24;;;;;;;3.13;0.60;;;17.80;70.60;;;;;;5136416;27;20202;-85
2023/08/19 02:10:56;;;;;;;1.95;0.60;;;18.00;70.10;;;;;;5137774;27;20564;-86
2023/08/19 02:13:27;;;;;;;3.38;1.10;;;18.20;70.20;;;;;;5138203;27;20186;-85
2023/08/19 02:15:57;;;;;;;1.90;0.93;;;18.40;70.30;;;;;;5139880;27;20198;-85
2023/08/19 02:18:30;;;;;;;3.75;1.25;;;18.50;69.30;;;;;;5140414;27;20194;-86
2023/08/19 02:21:01;;;;;;;2.67;1.10;;;18.50;67.60;;;;;;5137561;27;20253;-86
2023/08/19 02:23:32;;;;;;;3.17;1.02;;;18.50;68.10;;;;;;5142051;27;20221;-87
2023/08/19 02:26:24;;;;;;;1.52;0.50;;;18.50;68.40;;;;;;5134511;27;20504;-87
2023/08/19 02:28:56;;;;;;;3.30;0.70;;;18.70;66.90;;;;;;5113881;28;20202;-86
2023/08/19 02:31:28;;;;;;;2.00;0.70;;;18.80;67.00;;;;;;5116084;28;20199;-85
2023/08/19 02:34:00;;;;;;;3.03;0.80;;;18.80;66.10;;;;;;5115228;28;20603;-86
2023/08/19 02:36:31;;;;;;;2.00;0.85;;;18.60;66.30;;;;;;5116959;28;20190;-86
2023/08/19 02:39:02;;;;;;;2.78;1.00;;;18.70;66.60;;;;;;5125377;28;20194;-85
2023/08/19 02:41:36;;;;;;;2.92;0.98;;;18.80;67.30;;;;;;5126113;28;20194;-86
2023/08/19 02:44:07;;;;;;;3.33;0.60;;;18.90;67.20;;;;;;5142497;28;20231;-86
2023/08/19 02:46:39;;;;;;;2.60;0.70;;;19.00;66.60;;;;;;5140417;28;20233;-86
2023/08/19 02:49:11;;;;;;;0.93;0.60;;;18.80;66.40;;;;;;5125708;28;20285;-83
2023/08/19 02:51:41;;;;;;;2.03;0.60;;;18.60;67.40;;;;;;5110581;28;20206;-86
2023/08/19 02:54:13;;;;;;;8.45;0.80;;;18.70;68.40;;;;;;5113081;28;20225;-86
2023/08/19 02:56:47;;;;;;;1.33;0.80;;;18.80;67.80;;;;;;5117315;28;20191;-92
2023/08/19 02:59:18;;;;;;;1.77;0.70;;;18.90;66.70;;;;;;5135216;28;20198;-90
2023/08/19 03:01:51;;;;;;;1.58;0.75;;;18.70;67.50;;;;;;5126422;28;20191;-91
2023/08/19 03:04:22;;;;;;;1.95;0.68;;;18.80;68.30;;;;;;5115389;28;20778;-89
2023/08/19 03:06:53;;;;;;;1.90;0.50;;;18.80;68.20;;;;;;5133367;28;20198;-86
2023/08/19 03:09:26;;;;;;;1.35;0.38;;;19.00;69.50;;;;;;5136994;28;20174;-89
2023/08/19 03:12:03;;;;;;;0.93;0.52;;;19.00;66.50;;;;;;5154479;28;20173;-88
2023/08/19 03:14:34;;;;;;;1.33;0.70;;;18.90;68.30;;;;;;5113691;28;20198;-89
2023/08/19 03:17:05;;;;;;;1.80;0.55;;;18.90;67.60;;;;;;5113328;28;20212;-89
2023/08/19 03:19:36;;;;;;;2.60;0.80;;;18.80;67.80;;;;;;5133087;27;20201;-90
2023/08/19 03:22:09;;;;;;;2.30;0.68;;;18.80;68.50;;;;;;5116352;28;20191;-88
2023/08/19 03:24:41;;;;;;;2.75;1.48;;;19.00;69.50;;;;;;5114016;28;20280;-92
2023/08/19 03:27:16;;;;;;;1.67;0.60;;;19.20;68.60;;;;;;5118679;27;20260;-89
2023/08/19 03:29:47;;;;;;;3.28;1.00;;;19.10;67.60;;;;;;5133868;28;20230;-90
2023/08/19 03:32:18;;;;;;;4.22;1.45;;;18.90;68.10;;;;;;5133988;27;20736;-90
2023/08/19 03:34:52;;;;;;;1.52;1.10;;;18.90;69.00;;;;;;5132660;28;20175;-91
2023/08/19 03:37:24;;;;;;;1.88;1.17;;;18.70;69.80;;;;;;5121581;28;20191;-93
2023/08/19 03:39:55;;;;;;;2.97;1.65;;;18.80;71.00;;;;;;5121869;28;20179;-90
2023/08/19 03:42:32;;;;;;;2.55;1.20;;;18.70;69.80;;;;;;5129903;28;20198;-90
2023/08/19 03:45:03;;;;;;;1.83;0.55;;;18.70;70.60;;;;;;5098170;28;20211;-89
2023/08/19 03:47:35;;;;;;;0.95;0.60;;;18.70;69.90;;;;;;5113896;28;20202;-91
2023/08/19 03:50:06;;;;;;;1.70;0.63;;;18.60;71.40;;;;;;5101663;28;20197;-90
2023/08/19 03:52:37;;;;;;;3.33;0.80;;;18.80;70.50;;;;;;5114603;28;20210;-90
2023/08/19 03:55:09;;;;;;;3.20;1.67;;;18.60;70.80;;;;;;5113736;28;20206;-88
2023/08/19 03:57:44;;;;;;;1.52;0.70;;;18.50;72.20;;;;;;5120951;28;21878;-89
2023/08/19 04:00:16;;;;;;;4.35;1.08;;;18.50;71.80;;;;;;5121559;28;20197;-89
2023/08/19 04:02:46;;;;;;;1.77;0.80;;;18.30;72.60;;;;;;5122956;28;20190;-88
2023/08/19 04:05:17;;;;;;;2.00;0.70;;;18.40;73.20;;;;;;5120804;28;20203;-89
2023/08/19 04:07:48;;;;;;;1.40;0.77;;;18.30;73.00;;;;;;5124406;28;20186;-87
2023/08/19 04:10:26;;;;;;;3.35;0.70;;;18.40;73.70;;;;;;5122861;28;20248;-91
2023/08/19 04:15:43;;;;;;;2.15;0.98;;;18.40;73.90;;;;;;5106389;28;20217;-90
2023/08/19 04:18:19;;;;;;;3.35;1.00;;;18.50;73.90;;;;;;5113459;28;20182;-85
2023/08/19 04:20:53;;;;;;;4.93;1.08;;;18.70;74.00;;;;;;5134206;28;20219;-96
2023/08/19 04:23:32;;;;;;;1.60;0.70;;;18.80;73.50;;;;;;5128506;28;20190;-92
2023/08/19 04:26:10;;;;;;;0.65;0.40;;;19.00;73.30;;;;;;5132179;28;20281;-93
2023/08/19 04:29:02;;;;;;;2.63;0.63;;;19.00;71.90;;;;;;5117908;28;20203;-93
2023/08/19 04:31:38;;;;;;;1.00;0.43;;;18.90;73.00;;;;;;5108397;28;20199;-94
2023/08/19 04:36:59;;;;;;;2.83;0.90;;;18.90;73.10;;;;;;5121789;28;20195;-94
2023/08/19 04:39:38;;;;;;;1.65;0.60;;;18.90;73.30;;;;;;5125912;28;20209;-90
2023/08/19 04:42:12;;;;;;;2.72;0.68;;;18.80;73.00;;;;;;5136315;28;20254;-90
2023/08/19 04:44:48;;;;;;;2.88;0.63;;;18.90;75.00;;;;;;5131402;28;20255;-92
2023/08/19 04:47:25;;;;;;;2.15;0.68;;;18.90;75.00;;;;;;5126475;28;20252;-90
2023/08/19 04:50:09;;;;;;;1.70;0.60;;;18.80;75.70;;;;;;5118850;28;20673;-91
2023/08/19 04:52:43;;;;;;;2.28;0.70;;;18.80;75.20;;;;;;5127235;28;20278;-91
2023/08/19 04:55:19;;;;;;;2.65;0.70;;;18.70;75.60;;;;;;5114854;28;20195;-95
2023/08/19 04:57:50;;;;;;;1.15;0.73;;;18.60;76.30;;;;;;5127609;28;20189;-94
2023/08/19 05:00:33;;;;;;;2.20;0.60;;;18.60;76.90;;;;;;5128268;28;20206;-88
2023/08/19 05:03:06;;;;;;;1.25;0.45;;;18.70;76.70;;;;;;5119522;28;20190;-87
2023/08/19 05:05:37;;;;;;;0.70;0.40;;;18.80;76.70;;;;;;5115153;28;20218;-88
2023/08/19 05:08:13;;;;;;;1.42;0.60;;;19.00;76.20;;;;;;5120156;28;20225;-91
2023/08/19 05:10:44;;;;;;;0.75;0.35;;;19.00;75.70;;;;;;5102399;28;20198;-90
2023/08/19 05:13:15;;;;;;;1.20;0.50;;;19.20;75.90;;;;;;5104806;28;20202;-89
2023/08/19 05:15:49;;;;;;;0.98;0.70;;;19.20;75.30;;;;;;5100932;28;20199;-91
2023/08/19 05:18:20;;;;;;;2.20;0.50;;;19.40;76.30;;;;;;5103036;28;20548;-89
2023/08/19 05:20:51;;;;;;;1.27;0.60;;;19.30;75.10;;;;;;5121721;28;20206;-92
2023/08/19 05:23:21;;;;;;;2.08;0.90;;;19.40;75.60;;;;;;5102691;28;20206;-88
2023/08/19 05:25:52;;;;;;;2.45;0.65;;;19.40;75.80;;;;;;5099229;28;20239;-88
2023/08/19 05:28:23;;;;;;;3.13;0.63;;;19.30;75.30;;;;;;5111229;28;20658;-90
2023/08/19 05:30:59;;;;;;;2.95;1.00;;;19.30;75.70;;;;;;5118886;28;20191;-88
2023/08/19 05:33:29;;;;;;;1.02;0.70;;;19.20;76.20;;;;;;5106765;28;20199;-88
2023/08/19 05:36:02;;;;;;;2.72;1.35;;;19.20;76.70;;;;;;5123119;28;20206;-89
2023/08/19 05:38:32;;;;;;;4.03;1.27;;;19.30;76.70;;;;;;5124646;28;20213;-87
2023/08/19 05:41:04;;;;;;;3.38;1.10;;;19.20;77.60;;;;;;5122501;28;20209;-88
2023/08/19 05:43:36;;;;;;;2.67;1.08;;;19.20;77.80;;;;;;5112462;28;20209;-89
2023/08/19 05:46:11;;;;;;;1.27;0.90;;;19.00;77.80;;;;;;5101831;28;20709;-89
2023/08/19 05:48:43;;;;;;;2.22;0.95;;;19.00;78.50;;;;;;5102507;28;20194;-88
2023/08/19 05:51:16;;;;;;;2.25;0.90;;;19.00;78.70;;;;;;5116547;28;20287;-89
2023/08/19 05:53:48;;;;;;;2.25;1.17;;;19.00;79.40;;;;;;5111470;28;20666;-88
2023/08/19 05:56:19;;;;;;;2.83;1.30;;;19.10;78.30;;;;;;5101765;28;20202;-89
2023/08/19 05:58:53;;;;;;;1.42;0.93;;;18.80;79.50;;;;;;5096224;28;20190;-88
2023/08/19 06:01:26;;;;;;;3.60;1.00;;;18.90;80.10;;;;;;5113553;28;20194;-88
2023/08/19 06:04:02;;;;;;;1.27;0.80;;;18.90;80.00;;;;;;5111859;28;20662;-88
2023/08/19 06:06:33;;;;;;;1.33;0.70;;;19.00;79.60;;;;;;5114845;28;20210;-87
2023/08/19 06:09:04;;;;;;;2.95;0.90;;;19.10;79.40;;;;;;5111318;28;20203;-88
2023/08/19 06:11:36;;;;;;;3.08;0.85;;;19.00;80.10;;;;;;5103666;28;20206;-88
2023/08/19 06:14:07;;;;;;;1.30;0.68;;;19.10;80.20;;;;;;5116170;28;20214;-87
2023/08/19 06:16:41;;;;;;;2.08;0.90;;;19.20;79.90;;;;;;5111813;28;20742;-88
2023/08/19 06:19:13;;;;;;;0.90;0.55;;;19.40;80.90;;;;;;5113807;28;20271;-86
2023/08/19 06:21:45;;;;;;;1.20;0.70;;;19.30;79.70;;;;;;5097580;28;20255;-87
2023/08/19 06:24:16;;;;;;;1.38;0.60;;;19.40;79.30;;;;;;5113643;28;20720;-89
2023/08/19 06:26:47;;;;;;;2.55;0.70;;;19.30;79.10;;;;;;5097722;28;20636;-86
2023/08/19 06:29:17;;;;;;;1.40;0.65;;;19.40;80.00;;;;;;5113653;28;20198;-88
2023/08/19 06:31:51;;;;;;;2.35;1.00;;;19.40;79.60;;;;;;5096168;28;20203;-88
2023/08/19 06:34:22;;;;;;;4.43;0.93;;;19.40;80.00;;;;;;5106596;28;20198;-87
2023/08/19 06:36:55;;;;;;;1.77;0.95;;;19.50;79.30;;;;;;5115133;28;20190;-86
2023/08/19 06:39:29;;;;;;;1.55;0.60;;;19.30;80.40;;;;;;5127022;28;20198;-88
2023/08/19 06:42:04;;;;;;;1.80;0.80;;;19.40;80.00;;;;;;5120093;28;20197;-86
2023/08/19 06:44:36;;;;;;;1.35;0.80;;;19.20;81.10;;;;;;5119482;28;20207;-86
2023/08/19 06:47:12;;;;;;;1.63;0.73;;;19.00;80.60;;;;;;5133338;28;20222;-86
2023/08/19 06:49:44;;;;;;;0.75;0.60;;;19.00;81.50;;;;;;5126260;28;20198;-88
2023/08/19 06:52:16;;;;;;;3.35;0.60;;;19.00;81.60;;;;;;5102534;28;20199;-88
2023/08/19 06:54:47;;;;;;;2.05;0.90;;;18.80;82.50;;;;;;5096878;28;20203;-87
2023/08/19 06:57:26;;;;;;;1.20;0.60;;;18.50;83.40;;;;;;5094813;28;20233;-86
2023/08/19 07:00:05;;;;;;;1.85;0.90;;;18.20;85.20;;;;;;5100999;28;20235;-90
2023/08/19 07:02:45;;;;;;;1.30;0.75;;;18.20;86.70;;;;;;5079759;28;20619;-88
2023/08/19 07:05:17;;;;;;;2.47;0.80;;;18.10;86.60;;;;;;5102053;28;20191;-87
2023/08/19 07:07:51;;;;;;;1.75;0.85;;;17.80;88.60;;;;;;5098939;28;20207;-87
2023/08/19 07:10:23;;;;;;;1.63;0.93;;;17.70;89.60;;;;;;5111804;28;20209;-87
2023/08/19 07:12:58;;;;;;;1.65;0.90;;;17.60;90.30;;;;;;5120495;28;20526;-86
2023/08/19 07:15:31;;;;;;;1.33;0.60;;;17.60;90.60;;;;;;5104552;28;20643;-88
2023/08/19 07:18:16;;;;;;;1.23;0.60;;;17.40;91.10;;;;;;5102765;28;20323;-86
2023/08/19 07:20:48;;;;;;;5.15;2.10;;;17.30;91.70;;;;;;5117207;28;20207;-84
2023/08/19 07:23:27;;;;;;;2.15;0.80;;;17.30;92.30;;;;;;5101754;28;20195;-86
2023/08/19 07:28:57;;;;;;;1.90;0.90;;;17.20;93.50;;;;;;5119691;28;20199;-85
2023/08/19 07:31:40;;;;;;;1.33;0.70;;;17.10;93.90;;;;;;5114406;28;20191;-87
2023/08/19 07:34:52;;;;;;;2.03;0.90;;;17.00;94.70;;;;;;5106093;28;20254;-86
2023/08/19 07:37:23;;;;;;;2.20;1.10;;;16.80;95.70;;;;;;5115789;28;20210;-87
2023/08/19 07:40:05;;;;;;;1.13;0.88;;;16.80;96.20;;;;;;5114481;28;20285;-88
2023/08/19 07:42:51;;;;;;;2.58;0.95;;;16.70;96.80;;;;;;5112519;28;20642;-88
2023/08/19 07:45:37;;;;;;;6.28;1.70;;;16.80;97.40;;;;;;5108081;28;20673;-87
2023/08/19 07:48:08;;;;;;;1.98;0.90;;;16.80;97.60;;;;;;5119722;28;20494;-88
2023/08/19 07:50:41;;;;;;;2.67;1.42;;;16.80;97.90;;;;;;5138735;28;20206;-87
2023/08/19 07:53:12;;;;;;;1.88;1.10;;;16.60;99.20;;;;;;5135317;28;20216;-84
2023/08/19 07:55:43;;;;;;;2.47;1.60;;;16.60;99.60;;;;;;5125961;28;20226;-84
2023/08/19 07:58:24;;;;;;;3.15;1.88;;;16.60;99.80;;;;;;5114296;28;20193;-84
2023/08/19 08:01:20;;;;;;;;;;;;;;;;;;;;;
2023/08/19 08:04:05;;;;;;;1.45;0.65;;;16.60;99.90;;;;;;5105666;28;20200;-84
2023/08/19 08:06:43;;;;;;;3.33;1.60;;;16.50;99.90;;;;;;5112937;28;20229;-87
2023/08/19 08:09:18;;;;;;;2.13;1.10;;;16.50;99.90;;;;;;5099635;28;20203;-85
2023/08/19 08:11:54;;;;;;;2.60;1.30;;;16.50;99.90;;;;;;5111171;28;20724;-85
2023/08/19 08:14:28;;;;;;;2.58;0.73;;;16.50;99.90;;;;;;5103074;28;20201;-86
2023/08/19 08:17:04;;;;;;;1.13;0.80;;;16.50;99.90;;;;;;5106967;28;20649;-86
2023/08/19 08:19:34;;;;;;;1.05;0.90;;;16.40;99.90;;;;;;5101941;28;20199;-85
2023/08/19 08:22:13;;;;;;;2.63;1.77;;;16.40;99.90;;;;;;5114606;28;20195;-84
2023/08/19 08:24:47;;;;;;;1.58;1.20;;;16.30;99.90;;;;;;5114488;28;20276;-85
2023/08/19 08:27:20;;;;;;;2.00;1.27;;;16.40;99.90;;;;;;5111181;28;20215;-84
2023/08/19 08:32:41;;;;;;;2.13;1.15;;;16.30;99.90;;;;;;5072041;28;20203;-84
2023/08/19 08:35:12;;;;;;;1.17;0.80;;;16.30;99.90;;;;;;5112132;28;20255;-83
2023/08/19 08:38:16;;;;;;;1.25;0.90;;;16.30;99.90;;;;;;5108193;28;20206;-84
2023/08/19 08:40:56;;;;;;;1.30;1.10;;;16.30;99.90;;;;;;5117430;28;20195;-86
2023/08/19 08:43:43;;;;;;;2.85;1.92;;;16.30;99.90;;;;;;5106131;28;20194;-86
2023/08/19 08:46:17;;;;;;;5.00;2.80;;;16.20;99.90;;;;;;5097247;28;20226;-84
2023/08/19 08:49:02;;;;;;;2.75;2.25;;;16.20;99.90;;;;;;5098605;28;20190;-83
2023/08/19 08:51:37;;;;;;;2.55;2.00;;;16.20;99.90;;;;;;5097817;28;20203;-84
2023/08/19 08:54:21;;;;;;;4.85;2.65;;;16.20;99.90;;;;;;5093515;28;20199;-83
2023/08/19 08:56:57;;;;;;;2.67;1.55;;;16.20;99.90;;;;;;5105230;28;20216;-84
2023/08/19 08:59:31;;;;;;;1.75;1.63;;;16.20;99.90;;;;;;5103577;28;20202;-85
2023/08/19 09:02:03;;;;;;;2.70;1.20;;;16.10;99.90;;;;;;5112859;28;20247;-85
2023/08/19 09:04:35;;;;;;;2.08;1.88;;;16.20;99.90;;;;;;5101592;28;20256;-85
2023/08/19 09:07:11;;;;;;;6.82;3.72;;;16.10;99.90;;;;;;5093052;28;20231;-85
2023/08/19 09:09:52;;;;;;;2.90;2.45;;;16.10;99.90;;;;;;5093680;28;20202;-84
2023/08/19 09:12:24;;;;;;;4.75;2.65;;;16.10;99.90;;;;;;5093043;28;20202;-86
2023/08/19 09:15:05;;;;;;;1.55;1.00;;;16.10;99.90;;;;;;5096498;28;20281;-85
2023/08/19 09:17:41;;;;;;;2.60;1.10;;;16.10;99.90;;;;;;5097417;28;20198;-85
2023/08/19 09:20:14;;;;;;;1.73;1.30;;;15.90;99.90;;;;;;5110631;28;20198;-85
2023/08/19 09:22:46;;;;;;;1.55;1.13;;;16.00;99.90;;;;;;5094874;28;20593;-87
2023/08/19 09:25:26;;;;;;;1.08;0.90;;;16.00;99.90;;;;;;5093140;28;20630;-83
2023/08/19 09:27:57;;;;;;;1.77;1.30;;;16.00;99.90;;;;;;5097347;28;20306;-84
2023/08/19 09:30:37;;;;;;;3.40;1.98;;;16.00;99.90;;;;;;5092540;28;20199;-86
2023/08/19 09:33:39;;;;;;;1.98;1.05;;;16.00;99.90;;;;;;5110643;28;20532;-86
2023/08/19 09:36:11;;;;;;;2.30;1.60;;;16.00;99.90;;;;;;5093884;28;20187;-86
2023/08/19 09:39:19;;;;;;;2.13;1.38;;;16.00;99.90;;;;;;5107008;28;20195;-85
2023/08/19 09:41:52;;;;;;;3.03;1.90;;;16.00;99.90;;;;;;5096577;28;20191;-87
2023/08/19 09:44:30;;;;;;;2.45;2.10;;;15.90;99.90;;;;;;5104953;28;20702;-86
2023/08/19 09:47:04;;;;;;;2.00;1.40;;;15.90;99.90;;;;;;5093307;28;20226;-84
2023/08/19 09:49:40;;;;;;;2.10;1.60;;;15.90;99.90;;;;;;5098028;28;20205;-86
2023/08/19 09:52:20;;;;;;;1.98;1.50;;;15.90;99.90;;;;;;5101281;28;20186;-86
2023/08/19 09:55:00;;;;;;;2.13;1.35;;;15.90;99.90;;;;;;5099150;28;20190;-86
2023/08/19 09:57:39;;;;;;;2.97;1.98;;;15.90;99.90;;;;;;5105506;28;20198;-85
2023/08/19 10:00:14;;;;;;;2.35;1.38;;;15.80;99.90;;;;;;5092748;28;20192;-87
2023/08/19 10:02:51;;;;;;;2.33;1.45;;;15.80;99.90;;;;;;5093653;28;20194;-87
2023/08/19 10:05:22;;;;;;;1.90;1.50;;;15.80;99.90;;;;;;5109316;28;20194;-86
2023/08/19 10:08:04;;;;;;;3.28;1.70;;;15.80;99.90;;;;;;5113773;28;20500;-88
2023/08/19 10:10:39;;;;;;;3.85;1.80;;;15.80;99.90;;;;;;5111075;28;20634;-86
2023/08/19 10:13:17;;;;;;;2.75;2.20;;;15.80;99.90;;;;;;5099906;28;20202;-87
2023/08/19 10:16:03;;;;;;;1.80;1.60;;;15.80;99.90;;;;;;5127467;28;20194;-86
2023/08/19 10:18:52;;;;;;;3.35;2.20;;;15.80;99.90;;;;;;5114307;28;20203;-85
2023/08/19 10:21:26;;;;;;;2.88;1.70;;;15.80;99.90;;;;;;5111188;28;20195;-87
2023/08/19 10:24:17;;;;;;;3.90;1.70;;;15.70;99.90;;;;;;5116372;28;20665;-87
2023/08/19 10:26:56;;;;;;;2.75;1.80;;;15.70;99.90;;;;;;5102321;28;20203;-88
2023/08/19 10:29:34;;;;;;;1.77;1.33;;;15.70;99.90;;;;;;5114527;28;20201;-87
2023/08/19 10:32:35;;;;;;;2.22;1.15;;;15.70;99.90;;;;;;5124845;28;20277;-87
2023/08/19 10:35:27;;;;;;;2.38;1.10;;;15.70;99.90;;;;;;5113380;28;20198;-88
2023/08/19 10:37:58;;;;;;;1.95;1.23;;;15.70;99.90;;;;;;5114644;28;20218;-86
2023/08/19 10:40:30;;;;;;;2.33;1.30;;;15.70;99.90;;;;;;5114096;28;20198;-87
2023/08/19 10:43:02;;;;;;;2.47;1.30;;;15.60;99.90;;;;;;5114821;28;20198;-85
2023/08/19 10:45:39;;;;;;;2.17;1.73;;;15.60;99.90;;;;;;5103515;28;20192;-87
2023/08/19 10:48:10;;;;;;;3.42;2.30;;;15.50;99.90;;;;;;5114844;28;20222;-88
2023/08/19 10:50:45;;;;;;;2.80;2.08;;;15.50;99.90;;;;;;5107355;28;20632;-87
2023/08/19 10:53:24;;;;;;;5.93;4.32;;;15.40;99.90;;;;;;5098162;28;20217;-86
2023/08/19 10:55:55;;;;;;;3.13;1.90;;;15.30;99.90;;;;;;5097562;28;20612;-86
2023/08/19 10:58:30;;;;;;;2.33;1.85;;;15.30;99.90;;;;;;5097275;28;20206;-86
2023/08/19 11:01:08;;;;;;;3.17;2.05;;;15.30;99.90;;;;;;5098905;28;20198;-87
2023/08/19 11:04:00;;;;;;;3.08;1.80;;;15.40;99.90;;;;;;5102519;28;20199;-88
2023/08/19 11:06:55;;;;;;;;;;;;;;;;;;;;;
2023/08/19 11:09:37;;;;;;;2.10;1.50;;;15.30;99.90;;;;;;5081337;28;20203;-87
2023/08/19 11:12:13;;;;;;;2.17;1.55;;;15.20;99.90;;;;;;5096161;28;20207;-86
2023/08/19 11:15:28;;;;;;;4.18;1.35;;;15.30;99.90;;;;;;5110461;27;20190;-86
2023/08/19 11:18:04;;;;;;;2.22;1.50;;;15.20;99.90;;;;;;5103311;27;20196;-83
2023/08/19 11:20:54;;;;;;;1.95;1.52;;;15.20;99.90;;;;;;5111238;28;20606;-86
2023/08/19 11:23:38;;;;;;;1.58;1.30;;;15.30;99.90;;;;;;5122634;28;20201;-86
2023/08/19 11:26:19;;;;;;;1.83;1.35;;;15.30;99.90;;;;;;5126274;28;20235;-85
2023/08/19 11:28:53;;;;;;;1.50;1.23;;;15.30;99.90;;;;;;5111033;28;20315;-86
2023/08/19 11:31:53;;;;;;;2.53;1.13;;;15.30;99.90;;;;;;5097691;28;20220;-90
2023/08/19 11:34:32;;;;;;;2.35;1.10;;;15.30;99.90;;;;;;5097773;28;20213;-87
2023/08/19 11:37:23;;;;;;;1.77;1.30;;;15.30;99.90;;;;;;5111506;28;20210;-86
2023/08/19 11:39:54;;;;;;;2.22;1.08;;;15.40;99.90;;;;;;5100280;28;20216;-88
2023/08/19 11:42:28;;;;;;;2.88;1.42;;;15.30;99.90;;;;;;5116273;28;20213;-87
2023/08/19 11:45:01;;;;;;;1.13;0.95;;;15.30;99.90;;;;;;5083514;28;20190;-87
2023/08/19 11:47:37;;;;;;;1.48;1.05;;;15.30;99.90;;;;;;5104768;28;20234;-87
2023/08/19 11:50:13;;;;;;;1.10;1.00;;;15.40;99.90;;;;;;5110843;28;20693;-87
2023/08/19 11:52:52;;;;;;;2.20;1.10;;;15.40;99.90;;;;;;5112090;28;20195;-88
2023/08/19 11:55:28;;;;;;;1.10;0.70;;;15.40;99.90;;;;;;5103079;28;20178;-88
2023/08/19 11:57:59;;;;;;;0.98;0.88;;;15.40;99.90;;;;;;5117270;28;20187;-88
2023/08/19 12:00:30;;;;;;;2.67;1.00;;;15.40;99.90;;;;;;5101833;28;20225;-88
2023/08/19 12:03:03;;;;;;;1.67;1.08;;;15.40;99.90;;;;;;5106860;28;20279;-88
2023/08/19 12:05:50;;;;;;;0.60;0.60;;;15.40;99.90;;;;;;5115550;28;20565;-88
2023/08/19 12:08:35;;;;;;;1.35;0.80;;;15.50;99.90;;;;;;5122228;28;20332;-89
2023/08/19 12:11:10;;;;;;;0.85;0.60;;;15.50;99.90;;;;;;5108979;28;20199;-85
2023/08/19 12:13:42;;;;;;;0.82;0.80;;;15.40;99.90;;;;;;5102506;28;20286;-85
2023/08/19 12:16:14;;;;;;;0.98;0.50;;;15.40;99.90;;;;;;5105884;28;20195;-86
2023/08/19 12:18:47;;;;;;;0.80;0.55;;;15.50;99.90;;;;;;5105002;28;20202;-84
2023/08/19 12:21:24;;;;;;;0.70;0.60;;;15.50;99.90;;;;;;5099953;28;20183;-87
2023/08/19 12:23:56;;;;;;;0.85;0.60;;;15.40;99.90;;;;;;5113524;28;20191;-87
2023/08/19 12:26:28;;;;;;;0.90;0.80;;;15.40;99.90;;;;;;5133835;28;20224;-84
2023/08/19 12:28:59;;;;;;;1.02;0.65;;;15.40;99.90;;;;;;5104309;28;20241;-87
2023/08/19 12:31:31;;;;;;;0.73;0.50;;;15.40;99.90;;;;;;5114920;28;20203;-85
2023/08/19 12:34:03;;;;;;;0.50;0.50;;;15.40;99.90;;;;;;5111225;28;20258;-85
2023/08/19 12:36:37;;;;;;;0.60;0.50;;;15.40;99.90;;;;;;5119912;28;20190;-85
2023/08/19 12:39:08;;;;;;;1.13;0.65;;;15.40;99.90;;;;;;5108239;28;20641;-87
2023/08/19 12:41:39;;;;;;;0.75;0.60;;;15.40;99.90;;;;;;5114925;28;20183;-87
2023/08/19 12:44:10;;;;;;;1.35;0.90;;;15.40;99.90;;;;;;5125009;28;20207;-87
2023/08/19 12:46:47;;;;;;;1.50;0.70;;;15.40;99.90;;;;;;5121357;28;20198;-87
2023/08/19 12:49:19;;;;;;;1.05;0.68;;;15.50;99.90;;;;;;5131379;28;20235;-91
2023/08/19 12:52:06;;;;;;;1.63;0.95;;;15.50;99.90;;;;;;5133962;28;20182;-88
2023/08/19 12:54:46;;;;;;;0.80;0.70;;;15.40;99.90;;;;;;5130530;28;20202;-89
2023/08/19 12:57:17;;;;;;;0.57;0.57;;;15.40;99.90;;;;;;5131560;28;20192;-87
2023/08/19 12:59:50;;;;;;;0.57;0.50;;;15.40;99.90;;;;;;5126903;28;20673;-86
2023/08/19 13:02:22;;;;;;;2.50;0.68;;;15.30;99.90;;;;;;5118545;28;20209;-90
2023/08/19 13:04:56;;;;;;;1.10;0.77;;;15.30;99.90;;;;;;5109764;28;20187;-90
2023/08/19 13:16:10;;;;;;;0.93;0.70;;;15.40;99.90;;;;;;5125617;28;20174;-89
2023/08/19 13:18:46;;;;;;;1.13;0.60;;;15.40;99.90;;;;;;5135893;28;20208;-91
2023/08/19 13:21:39;;;;;;;2.05;0.82;;;15.40;99.90;;;;;;5115562;28;20183;-91
2023/08/19 13:24:41;;;;;;;2.03;0.93;;;15.40;99.90;;;;;;5112525;28;20234;-90
2023/08/19 13:33:14;;;;;;;1.05;0.90;;;15.30;99.90;;;;;;5125184;28;20247;-89
2023/08/19 13:35:53;;;;;;;0.85;0.70;;;15.20;99.90;;;;;;5124679;28;20187;-90
2023/08/19 13:41:21;;;;;;;1.15;0.80;;;15.20;99.90;;;;;;5108479;28;20171;-90
2023/08/19 13:46:46;;;;;;;0.75;0.70;;;15.20;99.90;;;;;;5096140;28;20192;-87
2023/08/19 13:52:31;;;;;;;1.17;0.70;;;15.20;99.90;;;;;;5106132;28;20666;-89
2023/08/19 13:55:22;;;;;;;0.70;0.70;;;15.20;99.90;;;;;;5113676;28;20177;-90
2023/08/19 13:58:27;;;;;;;0.90;0.90;;;15.20;99.90;;;;;;5118554;28;20239;-89
2023/08/19 14:01:07;;;;;;;0.60;0.60;;;15.10;99.90;;;;;;5106525;28;20195;-90
2023/08/19 14:03:46;;;;;;;1.15;0.63;;;15.10;99.90;;;;;;5105812;28;20230;-91
2023/08/19 14:06:20;;;;;;;0.80;0.70;;;15.10;99.90;;;;;;5095059;28;20195;-90